Terminal Aerodrome Forecast
Issued by NWS Greer, SC

Home | Current Version | Previous Version | Text Only | Print | Product List | Glossary On
Versions: 1 2 3 4 5 6 7 8 9 10 11 12 13 14 15 16 17 18 19 20 21 22 23 24 25 26 27 28 29 30 31 32 33 34 35 36 37 38 39 40 41 42
000
FTUS42 KGSP 200528
TAFCLT
TAF
KCLT 200528Z 2006/2106 08004KT P6SM OVC150
      TEMPO 2006/2008 10006KT
     FM200800 07004KT P6SM OVC090
     FM201200 06004KT P6SM -RA OVC045
     FM201800 06004KT P6SM -RA OVC024
     FM210300 08003KT P6SM -RA BKN020
     FM210400 08003KT 4SM BR SCT024=

USA.gov is the U.S. government's official web portal to all federal, state and local government web resources and services.